Chapaevo, Kazakhstan
Current Conditions -  °F | °C
As of 12:00 AM on Tuesday 27 Jan 2015 (Local Time) from UARR Reporting Station
Clear Clear  
Wind Chill: -28°   Ceiling: Unl
Heat Index: -8°   Visibility: 6mi
Dew Point: -13°   Wind: 13mph
Humidity: 77%   Direction: 140°SE
Pressure: 30.71"   Gusts: NA
Location:  50.2°N, 51.17°E
Report Text: UARR 262000Z 14006MPS CAVOK M22/M25 Q1040 R22/711065 NOSIG RMKQFE776/1035
Loading
Personal Weather Stations






























Interactive Weather Map New forecast layout! Learn more

10-Day Weather Forecast

Advertisements
Track Severe Weather on mobile